Abrams, Wisconsin
Current Conditions -  °F | °C
As of 6:15 PM on Sunday 21 Dec 2014 (Local Time) from KOCQ Reporting Station
Overcast Overcast  
Wind Chill: 27°   Ceiling: 2900
Heat Index: 34°   Visibility: 5mi
Dew Point: 33°   Wind: 8mph
Humidity: 99%   Direction: 160°SSE
Pressure: 30"   Gusts: NA
Location:  44.78°N, 88.06°W
Report Text: KOCQ 220015Z AUTO 16007KT 5SM SCT023 OVC029 01/01 A3000 RMK AO1 T00100008
Loading
Personal Weather Stations






























Interactive Weather Map New forecast layout! Learn more

10-Day Weather Forecast

Advertisements
Track Severe Weather on mobile